Time;durP1;ratioP1;P1;durP2;ratioP2;P2;SDS_P1;SDS_P2;PMS_P1;PMS_P2;Temp;Humidity;BMP_temperature;BMP_pressure;BME280_temperature;BME280_humidity;BME280_pressure;Samples;Min_cycle;Max_cycle;Signal;HPM_P1;HPM_P2
2021/08/28 00:00:13;;;;;;;3.47;2.78;;;;;;;10.42;100.00;93121.63;2115543;28;20023;-84
2021/08/28 00:01:14;;;;;;;5.50;2.80;;;;;;;10.42;100.00;93122.38;2115381;28;20054;-85
2021/08/28 00:02:15;;;;;;;4.13;2.63;;;;;;;10.37;100.00;93117.53;2098796;28;20393;-86
2021/08/28 00:03:15;;;;;;;4.40;2.75;;;;;;;10.40;100.00;93119.38;2098756;28;20021;-84
2021/08/28 00:04:16;;;;;;;4.97;3.22;;;;;;;10.43;100.00;93121.22;2115612;28;20043;-83
2021/08/28 00:05:17;;;;;;;3.88;2.97;;;;;;;10.44;100.00;93128.06;2132430;27;20030;-83
2021/08/28 00:06:18;;;;;;;4.90;3.08;;;;;;;10.46;100.00;93116.97;2115308;28;20024;-85
2021/08/28 00:07:19;;;;;;;10.48;3.20;;;;;;;10.47;100.00;93113.13;2106972;28;20031;-83
2021/08/28 00:08:20;;;;;;;4.13;2.50;;;;;;;10.44;100.00;93114.69;2115462;28;20069;-85
2021/08/28 00:09:21;;;;;;;3.05;2.38;;;;;;;10.41;100.00;93112.88;2115441;28;20023;-84
2021/08/28 00:10:22;;;;;;;2.97;2.17;;;;;;;10.40;100.00;93114.03;2115452;28;20065;-85
2021/08/28 00:11:23;;;;;;;3.85;2.78;;;;;;;10.34;100.00;93115.69;2115359;28;20015;-84
2021/08/28 00:12:24;;;;;;;4.93;2.58;;;;;;;10.40;100.00;93114.03;2098702;28;20058;-84
2021/08/28 00:13:25;;;;;;;4.03;2.55;;;;;;;10.37;100.00;93112.19;2106979;28;20020;-85
2021/08/28 00:14:26;;;;;;;3.45;3.15;;;;;;;10.32;100.00;93112.69;2115247;28;20024;-84
2021/08/28 00:15:26;;;;;;;2.97;2.70;;;;;;;10.27;100.00;93116.59;2106980;28;20024;-85
2021/08/28 00:16:27;;;;;;;4.68;2.90;;;;;;;10.38;100.00;93115.63;2106835;28;20721;-83
2021/08/28 00:17:33;;;;;;;6.22;3.30;;;;;;;10.36;100.00;93102.69;2107147;28;20032;-84
2021/08/28 00:18:34;;;;;;;4.28;3.13;;;;;;;10.27;100.00;93108.59;2106969;28;20072;-84
2021/08/28 00:19:35;;;;;;;5.03;2.63;;;;;;;10.28;100.00;93120.78;2090190;28;20095;-83
2021/08/28 00:20:37;;;;;;;4.43;3.15;;;;;;;10.36;100.00;93104.56;2098678;28;20870;-85
2021/08/28 00:21:37;;;;;;;5.25;2.95;;;;;;;10.25;100.00;93110.91;2107111;28;20077;-82
2021/08/28 00:22:39;;;;;;;5.57;2.80;;;;;;;10.24;100.00;93101.38;2106877;28;20078;-85
2021/08/28 00:23:40;;;;;;;3.78;3.25;;;;;;;10.20;100.00;93107.94;2098677;28;20044;-85
2021/08/28 00:24:41;;;;;;;4.38;3.50;;;;;;;10.18;100.00;93108.34;2107035;28;20099;-85
2021/08/28 00:25:42;;;;;;;3.40;2.97;;;;;;;10.27;100.00;93100.56;2106870;28;20024;-85
2021/08/28 00:26:43;;;;;;;4.68;2.95;;;;;;;10.22;100.00;93110.94;2098674;28;20035;-82
2021/08/28 00:27:44;;;;;;;4.72;3.13;;;;;;;10.17;100.00;93103.41;2106793;28;20534;-84
2021/08/28 00:28:45;;;;;;;4.47;3.13;;;;;;;10.17;100.00;93106.84;2115539;28;20042;-85
2021/08/28 00:29:46;;;;;;;5.68;2.65;;;;;;;10.15;100.00;93108.44;2107001;28;20019;-86
2021/08/28 00:30:47;;;;;;;3.50;3.00;;;;;;;10.14;100.00;93109.56;2106934;28;20554;-83
2021/08/28 00:31:48;;;;;;;4.15;3.42;;;;;;;10.16;100.00;93105.34;2115354;28;20081;-82
2021/08/28 00:32:49;;;;;;;6.55;3.22;;;;;;;10.11;100.00;93103.16;2098510;28;20389;-85
2021/08/28 00:33:49;;;;;;;5.43;2.90;;;;;;;10.14;100.00;93109.56;2098567;28;20021;-84
2021/08/28 00:34:50;;;;;;;4.43;3.38;;;;;;;10.13;100.00;93105.41;2115726;28;20550;-83
2021/08/28 00:35:51;;;;;;;5.40;3.30;;;;;;;10.15;100.00;93109.19;2109293;28;20024;-85
2021/08/28 00:36:52;;;;;;;7.22;3.40;;;;;;;10.23;100.00;93101.78;2100943;28;20024;-82
2021/08/28 00:37:53;;;;;;;5.03;3.13;;;;;;;10.18;100.00;93104.91;2108400;28;20016;-82
2021/08/28 00:38:54;;;;;;;4.93;3.67;;;;;;;10.15;100.00;93100.41;2107339;28;20504;-84
2021/08/28 00:39:55;;;;;;;6.25;3.10;;;;;;;10.21;100.00;93110.19;2098243;28;20107;-86
2021/08/28 00:40:56;;;;;;;7.15;3.08;;;;;;;10.18;100.00;93096.91;2090163;28;20021;-83
2021/08/28 00:41:59;;;;;;;4.95;3.20;;;;;;;10.17;100.00;93106.84;2107063;28;20089;-83
2021/08/28 00:43:00;;;;;;;3.30;2.97;;;;;;;10.14;100.00;93102.34;2115121;28;20019;-84
2021/08/28 00:44:02;;;;;;;6.97;3.65;;;;;;;10.11;100.00;93097.81;2098314;28;20385;-84
2021/08/28 00:45:04;;;;;;;5.70;3.60;;;;;;;10.21;100.00;93096.84;2106889;28;20043;-85
2021/08/28 00:46:05;;;;;;;4.13;3.10;;;;;;;10.26;100.00;93101.72;2123603;27;20015;-85
2021/08/28 00:47:06;;;;;;;3.95;3.05;;;;;;;10.26;100.00;93096.38;2105588;28;20450;-84
2021/08/28 00:48:14;;;;;;;3.38;2.72;;;;;;;10.29;100.00;93094.81;2098212;28;20021;-83
2021/08/28 00:49:15;;;;;;;7.63;3.50;;;;;;;10.22;100.00;93094.91;2099379;28;20025;-84
2021/08/28 00:50:15;;;;;;;5.22;2.70;;;;;;;10.24;100.00;93092.59;2106735;28;20032;-85
2021/08/28 00:51:16;;;;;;;5.18;3.47;;;;;;;10.20;100.00;93086.56;2106702;28;20075;-85
2021/08/28 00:52:19;;;;;;;4.97;3.67;;;;;;;10.17;100.00;93082.03;2115143;28;20027;-83
2021/08/28 00:53:20;;;;;;;5.07;2.85;;;;;;;10.17;100.00;93093.47;2123475;27;20094;-84
2021/08/28 00:54:21;;;;;;;5.88;3.30;;;;;;;10.16;100.00;93089.31;2108368;28;20016;-81
2021/08/28 00:55:29;;;;;;;6.53;2.70;;;;;;;10.11;100.00;93095.16;2114214;28;20023;-83
2021/08/28 00:56:30;;;;;;;5.65;2.92;;;;;;;10.14;100.00;93083.66;2107739;28;20032;-86
2021/08/28 00:57:33;;;;;;;3.90;2.70;;;;;;;10.09;100.00;93100.88;2098224;28;20501;-83
2021/08/28 00:58:33;;;;;;;5.10;2.90;;;;;;;10.09;100.00;93092.13;2098310;28;20025;-84
2021/08/28 00:59:34;;;;;;;4.85;3.22;;;;;;;10.14;100.00;93086.31;2098250;28;20130;-83
2021/08/28 01:00:55;;;;;;;4.53;3.28;;;;;;;10.09;100.00;93084.84;2106579;28;20024;-83
2021/08/28 01:01:56;;;;;;;4.32;2.85;;;;;;;10.09;100.00;93079.50;2106608;28;20492;-82
2021/08/28 01:02:59;;;;;;;4.72;3.03;;;;;;;10.04;100.00;93087.25;2106513;28;20031;-85
2021/08/28 01:04:01;;;;;;;3.58;3.28;;;;;;;10.08;100.00;93080.69;2106603;28;20028;-83
2021/08/28 01:05:18;;;;;;;4.63;2.50;;;;;;;10.18;100.00;93078.97;2090070;28;20025;-85
2021/08/28 01:06:40;;;;;;;3.17;2.88;;;;;;;10.16;100.00;93089.31;2102285;28;20078;-86
2021/08/28 01:07:55;;;;;;;4.88;3.38;;;;;;;10.20;100.00;93076.63;2099333;28;20044;-85
2021/08/28 01:09:02;;;;;;;3.90;3.42;;;;;;;10.23;100.00;93083.84;2108740;28;20070;-83
2021/08/28 01:10:08;;;;;;;4.68;3.10;;;;;;;10.19;100.00;93082.41;2110875;28;20741;-83
2021/08/28 01:11:18;;;;;;;4.45;2.78;;;;;;;10.16;100.00;93083.22;2098187;28;20090;-84
2021/08/28 01:12:22;;;;;;;4.78;3.10;;;;;;;10.20;100.00;93081.97;2084164;28;20082;-86
2021/08/28 01:13:25;;;;;;;3.90;2.80;;;;;;;10.23;100.00;93083.09;2090917;28;20783;-84
2021/08/28 01:14:28;;;;;;;5.38;2.70;;;;;;;10.23;100.00;93083.09;2098305;28;20027;-83
2021/08/28 01:15:30;;;;;;;3.60;2.80;;;;;;;10.20;100.00;93078.56;2098554;28;20441;-85
2021/08/28 01:16:33;;;;;;;4.88;2.97;;;;;;;10.25;100.00;93083.44;2098583;28;20024;-84
2021/08/28 01:17:38;;;;;;;4.90;2.90;;;;;;;10.21;100.00;93072.78;2115120;28;20085;-85
2021/08/28 01:18:41;;;;;;;3.20;2.65;;;;;;;10.24;100.00;93073.91;2114914;28;20384;-84
2021/08/28 01:20:08;;;;;;;8.25;3.33;;;;;;;10.26;100.00;93074.25;2115197;28;20698;-86
2021/08/28 01:21:25;;;;;;;4.88;2.83;;;;;;;10.24;100.00;93073.91;2114892;28;20027;-84
2021/08/28 01:22:30;;;;;;;2.92;2.60;;;;;;;10.20;100.00;93078.56;2114921;28;20023;-84
2021/08/28 01:23:34;;;;;;;4.97;2.83;;;;;;;10.20;100.00;93067.88;2106943;28;20020;-85
2021/08/28 01:24:44;;;;;;;3.25;2.95;;;;;;;10.18;100.00;93072.88;2098546;28;20021;-87
2021/08/28 01:25:46;;;;;;;4.70;2.92;;;;;;;10.17;100.00;93076.72;2092268;28;20020;-85
2021/08/28 01:26:55;;;;;;;4.10;3.03;;;;;;;10.17;100.00;93072.13;2089810;28;20075;-83
2021/08/28 01:28:01;;;;;;;6.40;2.78;;;;;;;10.18;100.00;93065.59;2100270;28;20028;-84
2021/08/28 01:29:24;;;;;;;5.25;2.63;;;;;;;10.19;100.00;93061.03;2107229;28;20484;-83
2021/08/28 01:30:25;;;;;;;3.83;2.90;;;;;;;10.18;100.00;93062.19;2109313;28;20107;-85
2021/08/28 01:31:27;;;;;;;8.13;3.28;;;;;;;10.18;100.00;93067.53;2114816;28;20027;-86
2021/08/28 01:32:28;;;;;;;4.50;3.38;;;;;;;10.18;100.00;93064.84;2106252;28;20020;-86
2021/08/28 01:33:30;;;;;;;5.03;3.53;;;;;;;10.22;100.00;93065.53;2098033;28;20654;-84
2021/08/28 01:34:32;;;;;;;5.53;3.75;;;;;;;10.22;100.00;93068.19;2098214;28;20027;-86
2021/08/28 01:35:34;;;;;;;5.40;3.90;;;;;;;10.23;100.00;93061.72;2089910;28;20035;-85
2021/08/28 01:36:35;;;;;;;4.95;3.65;;;;;;;10.29;100.00;93066.16;2090001;28;20025;-83
2021/08/28 01:37:40;;;;;;;4.57;3.47;;;;;;;10.30;100.00;93073.00;2098026;28;20021;-82
2021/08/28 01:38:42;;;;;;;6.72;3.85;;;;;;;10.32;100.00;93072.63;2098370;28;20056;-83
2021/08/28 01:39:45;;;;;;;6.10;3.60;;;;;;;10.31;100.00;93071.84;2098259;28;20051;-85
2021/08/28 01:40:48;;;;;;;6.07;3.65;;;;;;;10.45;100.00;93072.72;2091689;28;20020;-83
2021/08/28 01:41:55;;;;;;;5.35;3.97;;;;;;;10.38;100.00;93076.28;2090147;28;20027;-83
2021/08/28 01:42:57;;;;;;;4.57;3.63;;;;;;;10.35;100.00;93079.78;2097812;28;20052;-83
2021/08/28 01:43:58;;;;;;;7.00;3.80;;;;;;;10.36;100.00;93083.19;2098158;28;20028;-84
2021/08/28 01:44:59;;;;;;;5.03;4.00;;;;;;;10.27;100.00;93081.09;2115377;28;20088;-83
2021/08/28 01:46:02;;;;;;;6.00;3.97;;;;;;;10.30;100.00;93089.03;2097754;28;20077;-85
2021/08/28 01:47:04;;;;;;;7.30;3.72;;;;;;;10.31;100.00;93089.78;2098304;28;20048;-85
2021/08/28 01:48:06;;;;;;;6.70;4.30;;;;;;;10.40;100.00;93087.28;2106195;28;20066;-83
2021/08/28 01:49:09;;;;;;;6.95;3.80;;;;;;;10.35;100.00;93085.13;2103404;28;20027;-84
2021/08/28 01:50:11;;;;;;;6.03;3.70;;;;;;;10.36;100.00;93083.97;2106617;28;20051;-85
2021/08/28 01:51:12;;;;;;;5.07;3.30;;;;;;;10.41;100.00;93088.06;2092015;28;20748;-85
2021/08/28 01:52:16;;;;;;;4.38;3.63;;;;;;;10.30;100.00;93090.97;2089804;28;20548;-84
2021/08/28 01:53:19;;;;;;;7.07;3.50;;;;;;;10.26;100.00;93098.28;2098450;28;20024;-83
2021/08/28 01:54:19;;;;;;;5.05;3.83;;;;;;;10.28;100.00;93087.97;2092452;28;20028;-83
2021/08/28 01:55:21;;;;;;;4.25;3.78;;;;;;;10.26;100.00;93088.34;2097838;28;20016;-83
2021/08/28 01:56:22;;;;;;;4.25;3.13;;;;;;;10.23;100.00;93091.84;2097847;28;20067;-84
2021/08/28 01:57:24;;;;;;;5.30;3.15;;;;;;;10.22;100.00;93084.97;2114689;28;20043;-85
2021/08/28 01:58:28;;;;;;;4.10;3.20;;;;;;;10.28;100.00;93079.94;2114896;27;20024;-82
2021/08/28 01:59:30;;;;;;;4.22;3.58;;;;;;;10.32;100.00;93085.97;2115219;28;20616;-82
2021/08/28 02:00:31;;;;;;;5.03;3.05;;;;;;;10.32;100.00;93080.63;2106204;28;20024;-86
2021/08/28 02:01:32;;;;;;;3.63;3.30;;;;;;;10.25;100.00;93080.75;2106105;28;20119;-85
2021/08/28 02:02:32;;;;;;;3.80;3.50;;;;;;;10.26;100.00;93083.00;2114558;28;20422;-82
2021/08/28 02:03:33;;;;;;;3.58;3.28;;;;;;;10.28;100.00;93086.03;2098007;28;20074;-83
2021/08/28 02:04:35;;;;;;;5.35;3.53;;;;;;;10.28;100.00;93085.28;2097885;28;20078;-83
2021/08/28 02:07:12;;;;;;;;;;;;;;;10.27;100.00;93083.75;2139564;27;20166;-86
2021/08/28 02:08:21;;;;;;;3.65;3.28;;;;;;;10.30;100.00;93082.94;2121870;27;19943;-85
2021/08/28 02:09:47;;;;;;;3.97;3.45;;;;;;;10.27;100.00;93084.53;2110817;27;20093;-88
2021/08/28 02:10:54;;;;;;;5.78;3.90;;;;;;;10.23;100.00;93081.16;2116357;27;20035;-87
2021/08/28 02:12:11;;;;;;;6.38;3.70;;;;;;;10.26;100.00;93087.59;2117034;27;20027;-87
2021/08/28 02:13:33;;;;;;;4.35;3.70;;;;;;;10.23;100.00;93083.09;2112622;27;20651;-87
2021/08/28 02:14:41;;;;;;;10.38;4.18;;;;;;;10.19;100.00;93090.41;2113807;28;20031;-88
2021/08/28 02:15:49;;;;;;;3.72;3.20;;;;;;;10.24;100.00;93087.25;2109286;28;20399;-86
2021/08/28 02:16:50;;;;;;;4.97;3.40;;;;;;;10.21;100.00;93094.16;2108478;28;20032;-89
2021/08/28 02:18:24;;;;;;;7.70;4.20;;;;;;;10.23;100.00;93099.84;2108162;28;20032;-90
2021/08/28 02:19:31;;;;;;;6.05;3.75;;;;;;;10.22;100.00;93092.25;2107929;28;20597;-88
2021/08/28 02:20:35;;;;;;;4.35;3.58;;;;;;;10.25;100.00;93089.53;2112784;28;20056;-85
2021/08/28 02:21:37;;;;;;;4.38;3.42;;;;;;;10.27;100.00;93099.78;2108469;28;20035;-85
2021/08/28 02:22:42;;;;;;;3.78;3.45;;;;;;;10.29;100.00;93102.81;2095502;28;20067;-89
2021/08/28 02:23:49;;;;;;;4.15;3.75;;;;;;;10.25;100.00;93094.13;2098283;28;20036;-85
2021/08/28 02:24:56;;;;;;;5.20;3.67;;;;;;;10.33;100.00;93098.91;2095012;28;20028;-86
2021/08/28 02:26:09;;;;;;;7.00;4.05;;;;;;;10.33;100.00;93095.47;2101993;28;20458;-87
2021/08/28 02:27:25;;;;;;;4.90;3.63;;;;;;;10.36;100.00;93088.53;2108795;27;20031;-86
2021/08/28 02:28:40;;;;;;;6.57;3.72;;;;;;;10.34;100.00;93091.63;2121822;27;20031;-87
2021/08/28 02:29:50;;;;;;;4.07;3.65;;;;;;;10.33;100.00;93092.81;2116257;27;20037;-88
2021/08/28 02:30:53;;;;;;;3.75;3.45;;;;;;;10.36;100.00;93088.53;2108424;28;20487;-88
2021/08/28 02:31:58;;;;;;;3.83;3.53;;;;;;;10.33;100.00;93082.88;2104455;28;20028;-86
2021/08/28 02:33:02;;;;;;;5.68;3.97;;;;;;;10.36;100.00;93085.88;2103690;28;20110;-86
2021/08/28 02:34:04;;;;;;;4.47;4.07;;;;;;;10.31;100.00;93079.09;2104989;28;20323;-87
2021/08/28 02:35:08;;;;;;;5.72;3.60;;;;;;;10.30;100.00;93078.34;2104468;28;20035;-88
2021/08/28 02:36:12;;;;;;;4.15;3.83;;;;;;;10.30;100.00;93081.03;2115657;28;20027;-89
2021/08/28 02:37:15;;;;;;;4.72;4.10;;;;;;;10.30;100.00;93074.94;2114708;27;20023;-88
2021/08/28 02:38:17;;;;;;;4.35;3.88;;;;;;;10.31;100.00;93076.44;2108186;28;20024;-86
2021/08/28 02:39:19;;;;;;;5.20;3.83;;;;;;;10.30;100.00;93082.94;2116712;27;20024;-86
2021/08/28 02:40:21;;;;;;;6.18;3.97;;;;;;;10.32;100.00;93076.03;2116136;27;20123;-88
2021/08/28 02:41:26;;;;;;;6.07;3.90;;;;;;;10.31;100.00;93073.75;2108137;28;20028;-87
2021/08/28 02:42:27;;;;;;;5.22;4.20;;;;;;;10.28;100.00;93080.69;2105163;28;20024;-86
2021/08/28 02:43:29;;;;;;;7.88;4.30;;;;;;;10.30;100.00;93074.94;2111684;28;20110;-87
2021/08/28 02:44:32;;;;;;;5.53;4.03;;;;;;;10.30;100.00;93073.00;2104104;28;20028;-87
2021/08/28 02:45:34;;;;;;;4.72;4.00;;;;;;;10.30;100.00;93082.94;2108085;27;20115;-87
2021/08/28 02:46:36;;;;;;;5.85;4.20;;;;;;;10.33;100.00;93082.13;2111359;28;20584;-85
2021/08/28 02:47:37;;;;;;;4.70;3.75;;;;;;;10.36;100.00;93081.31;2108230;28;20027;-86
2021/08/28 02:48:39;;;;;;;5.90;3.53;;;;;;;10.37;100.00;93077.47;2107901;28;20031;-87
2021/08/28 02:49:42;;;;;;;6.68;3.92;;;;;;;10.40;100.00;93083.88;2108248;28;20020;-86
2021/08/28 02:50:45;;;;;;;5.80;3.78;;;;;;;10.39;100.00;93077.78;2099920;28;20032;-88
2021/08/28 02:51:46;;;;;;;5.05;3.60;;;;;;;10.38;100.00;93073.63;2097407;28;20481;-89
2021/08/28 02:52:49;;;;;;;4.60;3.65;;;;;;;10.39;100.00;93083.13;2108094;28;20462;-85
2021/08/28 02:53:51;;;;;;;3.88;3.58;;;;;;;10.37;100.00;93087.41;2106675;28;20032;-87
2021/08/28 02:54:56;;;;;;;7.15;4.10;;;;;;;10.36;100.00;93083.19;2099673;28;20024;-87
2021/08/28 02:55:59;;;;;;;5.07;3.92;;;;;;;10.32;100.00;93081.38;2108113;28;20071;-85
2021/08/28 02:57:00;;;;;;;5.07;4.15;;;;;;;10.40;100.00;93081.97;2107300;28;20028;-88
2021/08/28 02:58:02;;;;;;;5.47;3.78;;;;;;;10.37;100.00;93088.16;2095588;28;20497;-87
2021/08/28 02:59:03;;;;;;;7.13;3.75;;;;;;;10.35;100.00;93085.13;2104400;28;20031;-90
2021/08/28 03:00:05;;;;;;;5.47;4.25;;;;;;;10.36;100.00;93083.97;2107681;28;20051;-86
2021/08/28 03:01:08;;;;;;;4.60;3.85;;;;;;;10.34;100.00;93088.97;2112111;28;20027;-87
2021/08/28 03:02:09;;;;;;;4.88;3.72;;;;;;;10.34;100.00;93091.63;2103796;28;20073;-90
2021/08/28 03:03:13;;;;;;;4.95;3.30;;;;;;;10.35;100.00;93090.47;2096419;28;20021;-85
2021/08/28 03:04:17;;;;;;;4.25;3.85;;;;;;;10.35;100.00;93085.13;2100485;28;20048;-87
2021/08/28 03:05:18;;;;;;;5.45;3.38;;;;;;;10.36;100.00;93092.00;2104456;28;20075;-89
2021/08/28 03:06:20;;;;;;;3.90;3.50;;;;;;;10.42;100.00;93084.22;2103355;28;20493;-86
2021/08/28 03:07:21;;;;;;;7.65;3.85;;;;;;;10.34;100.00;93089.72;2111930;28;20080;-87
2021/08/28 03:08:22;;;;;;;4.78;3.63;;;;;;;10.37;100.00;93093.50;2099147;28;20026;-85
2021/08/28 03:09:24;;;;;;;3.45;3.20;;;;;;;10.34;100.00;93092.38;2107779;27;20030;-86
2021/08/28 03:10:25;;;;;;;5.53;3.63;;;;;;;10.34;100.00;93089.72;2116636;27;20434;-86
2021/08/28 03:11:26;;;;;;;4.40;3.88;;;;;;;10.33;100.00;93090.88;2107884;28;20049;-88
2021/08/28 03:12:27;;;;;;;4.25;3.78;;;;;;;10.29;100.00;93090.22;2103504;28;20032;-86
2021/08/28 03:13:29;;;;;;;4.80;3.35;;;;;;;10.34;100.00;93094.31;2103556;28;20447;-86
2021/08/28 03:14:30;;;;;;;4.28;3.13;;;;;;;10.34;100.00;93089.72;2103273;28;20481;-85
2021/08/28 03:15:32;;;;;;;3.40;3.10;;;;;;;10.37;100.00;93093.50;2104159;28;20118;-87
2021/08/28 03:16:34;;;;;;;3.50;3.20;;;;;;;10.28;100.00;93086.03;2104008;28;20024;-86
2021/08/28 03:17:37;;;;;;;4.10;3.70;;;;;;;10.29;100.00;93081.44;2107925;27;20039;-87
2021/08/28 03:18:40;;;;;;;4.53;3.50;;;;;;;10.28;100.00;93079.94;2110163;27;20032;-88
2021/08/28 03:19:42;;;;;;;4.45;3.53;;;;;;;10.29;100.00;93078.78;2110508;28;20036;-86
2021/08/28 03:20:47;;;;;;;4.35;3.35;;;;;;;10.29;100.00;93076.84;2106075;27;20114;-86
2021/08/28 03:21:50;;;;;;;4.13;3.20;;;;;;;10.34;100.00;93072.94;2102629;28;20036;-86
2021/08/28 03:22:51;;;;;;;3.38;2.83;;;;;;;10.31;100.00;93063.06;2098341;28;20028;-88
2021/08/28 03:23:56;;;;;;;5.45;3.45;;;;;;;10.30;100.00;93070.34;2106367;28;20024;-87
2021/08/28 03:24:57;;;;;;;6.97;3.20;;;;;;;10.25;100.00;93062.06;2106492;28;20077;-87
2021/08/28 03:25:59;;;;;;;3.55;3.25;;;;;;;10.27;100.00;93068.50;2101848;27;20020;-85
2021/08/28 03:27:01;;;;;;;4.90;3.42;;;;;;;10.27;100.00;93062.41;2097897;28;20118;-87
2021/08/28 03:28:03;;;;;;;3.38;3.08;;;;;;;10.27;100.00;93065.06;2102414;28;20111;-85
2021/08/28 03:29:05;;;;;;;3.85;2.75;;;;;;;10.21;100.00;93064.03;2115000;28;20516;-88
2021/08/28 03:30:12;;;;;;;4.82;2.58;;;;;;;10.17;100.00;93066.78;2106211;28;20024;-89
2021/08/28 03:31:15;;;;;;;2.97;2.78;;;;;;;10.13;100.00;93060.00;2091046;28;20469;-85
2021/08/28 03:32:17;;;;;;;5.20;3.13;;;;;;;10.05;100.00;93073.53;2093678;28;20060;-85
2021/08/28 03:33:19;;;;;;;6.38;2.90;;;;;;;10.06;100.00;93067.00;2110368;28;20015;-89
2021/08/28 03:34:21;;;;;;;5.80;2.67;;;;;;;10.04;100.00;93065.91;2109363;27;20032;-88
2021/08/28 03:35:24;;;;;;;5.20;2.63;;;;;;;10.04;100.00;93065.91;2102197;28;20544;-86
2021/08/28 03:36:25;;;;;;;3.63;2.78;;;;;;;10.03;100.00;93073.16;2099262;28;20021;-87
2021/08/28 03:37:26;;;;;;;3.08;2.58;;;;;;;9.98;100.00;93065.63;2101179;28;20024;-85
2021/08/28 03:38:28;;;;;;;4.10;2.65;;;;;;;9.92;100.00;93079.88;2109265;27;20049;-85
2021/08/28 03:39:29;;;;;;;4.13;2.53;;;;;;;9.86;100.00;93082.28;2110385;28;20527;-88
2021/08/28 03:40:30;;;;;;;3.17;2.45;;;;;;;9.88;100.00;93071.97;2090027;28;20057;-88
2021/08/28 03:41:31;;;;;;;5.13;2.72;;;;;;;9.82;100.00;93081.59;2093897;28;20028;-85
2021/08/28 03:42:32;;;;;;;4.18;2.67;;;;;;;9.78;100.00;93076.31;2089742;28;20121;-88
2021/08/28 03:43:35;;;;;;;3.08;2.30;;;;;;;9.81;100.00;93074.75;2093238;28;20035;-87
2021/08/28 03:44:40;;;;;;;4.18;2.67;;;;;;;9.70;100.00;93074.19;2102302;28;20083;-90
2021/08/28 03:45:42;;;;;;;2.83;2.58;;;;;;;9.73;100.00;93068.03;2109720;28;20030;-86
2021/08/28 03:46:47;;;;;;;4.15;2.88;;;;;;;9.76;100.00;93070.66;2110289;28;20611;-85
2021/08/28 03:47:48;;;;;;;3.88;2.88;;;;;;;9.70;100.00;93074.97;2092843;28;20086;-86
2021/08/28 03:48:49;;;;;;;3.25;2.88;;;;;;;9.71;100.00;93071.13;2095909;28;20032;-87
2021/08/28 03:49:50;;;;;;;3.30;2.60;;;;;;;9.72;100.00;93069.97;2106175;28;20020;-85
2021/08/28 03:50:51;;;;;;;4.03;2.90;;;;;;;9.59;100.00;93072.50;2097782;28;20024;-85
2021/08/28 03:51:52;;;;;;;3.08;2.58;;;;;;;9.64;100.00;93067.84;2102136;28;20027;-86
2021/08/28 03:52:53;;;;;;;5.07;3.33;;;;;;;9.64;100.00;93068.59;2101653;28;20142;-87
2021/08/28 03:53:54;;;;;;;2.72;2.42;;;;;;;9.61;100.00;93069.41;2090407;28;20025;-89
2021/08/28 03:54:55;;;;;;;4.00;2.33;;;;;;;9.63;100.00;93059.09;2100714;28;20028;-90
2021/08/28 03:55:58;;;;;;;2.75;2.55;;;;;;;9.68;100.00;93055.19;2092841;28;20029;-86
2021/08/28 03:56:59;;;;;;;3.08;2.28;;;;;;;9.51;100.00;93063.09;2098098;28;20475;-86
2021/08/28 03:58:00;;;;;;;5.03;2.50;;;;;;;9.48;100.00;93063.94;2093359;28;20021;-87
2021/08/28 03:59:02;;;;;;;4.65;2.63;;;;;;;9.53;100.00;93062.72;2106248;28;20058;-87
2021/08/28 04:00:07;;;;;;;2.70;2.30;;;;;;;9.57;100.00;93060.75;2106405;27;20023;-86
2021/08/28 04:01:08;;;;;;;3.03;2.08;;;;;;;9.62;100.00;93062.94;2102306;28;20016;-86
2021/08/28 04:02:09;;;;;;;6.95;2.42;;;;;;;9.65;100.00;93064.75;2101962;28;20381;-89
2021/08/28 04:03:10;;;;;;;4.07;2.50;;;;;;;9.54;100.00;93059.63;2112723;28;20028;-86
2021/08/28 04:04:10;;;;;;;3.85;2.30;;;;;;;9.58;100.00;93062.25;2107439;28;20020;-87
2021/08/28 04:05:11;;;;;;;2.92;2.33;;;;;;;9.59;100.00;93053.81;2093562;28;20028;-87
2021/08/28 04:06:12;;;;;;;5.88;2.35;;;;;;;9.65;100.00;93056.00;2100966;28;20027;-88
2021/08/28 04:07:13;;;;;;;3.25;2.20;;;;;;;9.49;100.00;93056.69;2099278;28;20518;-85
2021/08/28 04:08:14;;;;;;;3.55;2.30;;;;;;;9.42;100.00;93052.22;2091355;28;20049;-87
2021/08/28 04:09:15;;;;;;;3.70;2.08;;;;;;;9.40;100.00;93053.81;2112345;28;20587;-84
2021/08/28 04:10:18;;;;;;;3.60;2.22;;;;;;;9.29;100.00;93062.00;2101692;28;20484;-87
2021/08/28 04:11:19;;;;;;;2.60;2.40;;;;;;;9.33;100.00;93060.03;2101516;28;20028;-84
2021/08/28 04:12:20;;;;;;;2.92;2.33;;;;;;;9.22;100.00;93060.22;2100123;28;20058;-87
2021/08/28 04:13:20;;;;;;;3.20;2.58;;;;;;;9.20;100.00;93056.44;2108629;28;20055;-87
2021/08/28 04:14:21;;;;;;;3.42;2.40;;;;;;;9.16;100.00;93053.09;2110095;28;20097;-89
2021/08/28 04:15:22;;;;;;;3.50;2.20;;;;;;;9.04;100.00;93052.53;2101825;28;20024;-86
2021/08/28 04:16:23;;;;;;;4.65;2.30;;;;;;;9.11;100.00;93056.97;2109982;28;20038;-87
2021/08/28 04:17:24;;;;;;;2.30;2.05;;;;;;;9.10;100.00;93055.47;2092903;28;20025;-87
2021/08/28 04:18:25;;;;;;;2.50;2.25;;;;;;;9.07;100.00;93054.38;2101367;28;20035;-85
2021/08/28 04:19:26;;;;;;;3.33;2.15;;;;;;;9.10;100.00;93052.81;2109355;28;20378;-88
2021/08/28 04:20:27;;;;;;;3.67;2.03;;;;;;;9.06;100.00;93054.78;2089281;28;21358;-89
2021/08/28 04:21:28;;;;;;;3.45;2.35;;;;;;;9.17;100.00;93054.59;2092996;28;20063;-85
2021/08/28 04:22:29;;;;;;;6.25;2.67;;;;;;;9.14;100.00;93045.50;2101713;28;20017;-87
2021/08/28 04:23:30;;;;;;;3.83;2.25;;;;;;;9.15;100.00;93049.66;2100933;28;20405;-88
2021/08/28 04:24:31;;;;;;;3.42;2.17;;;;;;;9.15;100.00;93054.25;2093379;28;20025;-85
2021/08/28 04:25:31;;;;;;;2.90;2.10;;;;;;;9.16;100.00;93050.41;2101821;28;20020;-87
2021/08/28 04:26:32;;;;;;;3.72;2.42;;;;;;;9.14;100.00;93055.41;2109908;28;20089;-84
2021/08/28 04:27:33;;;;;;;3.33;2.25;;;;;;;9.07;100.00;93059.69;2114154;28;20117;-90
2021/08/28 04:28:35;;;;;;;3.10;2.30;;;;;;;9.12;100.00;93063.06;2105320;28;20463;-89
2021/08/28 04:29:35;;;;;;;2.97;2.20;;;;;;;9.10;100.00;93054.72;2100683;28;20025;-86
2021/08/28 04:30:38;;;;;;;7.40;2.17;;;;;;;9.05;100.00;93063.94;2109569;28;20024;-87
2021/08/28 04:31:39;;;;;;;2.72;2.05;;;;;;;9.13;100.00;93067.22;2118144;27;20035;-84
2021/08/28 04:32:40;;;;;;;3.92;2.40;;;;;;;9.20;100.00;93059.84;2113881;28;20023;-84
2021/08/28 04:33:41;;;;;;;2.95;2.10;;;;;;;9.21;100.00;93061.34;2101579;28;20028;-88
2021/08/28 04:34:42;;;;;;;2.65;2.45;;;;;;;9.23;100.00;93059.06;2092700;28;20025;-87
2021/08/28 04:35:43;;;;;;;3.40;2.60;;;;;;;9.18;100.00;93056.84;2105501;28;20122;-88
2021/08/28 04:36:43;;;;;;;5.75;2.45;;;;;;;9.23;100.00;93059.06;2095321;28;20024;-84
2021/08/28 04:37:45;;;;;;;4.75;3.13;;;;;;;9.16;100.00;93061.09;2091837;28;20024;-89
2021/08/28 04:38:46;;;;;;;3.17;2.60;;;;;;;9.19;100.00;93061.03;2093324;28;20385;-86
2021/08/28 04:39:47;;;;;;;3.38;2.20;;;;;;;9.19;100.00;93066.34;2101359;28;20032;-86
2021/08/28 04:40:48;;;;;;;2.50;1.90;;;;;;;9.17;100.00;93065.25;2092815;28;20074;-88
2021/08/28 04:41:49;;;;;;;2.88;2.47;;;;;;;9.16;100.00;93061.09;2103413;28;20047;-89
2021/08/28 04:42:52;;;;;;;4.95;2.58;;;;;;;9.13;100.00;93065.34;2099705;28;20027;-86
2021/08/28 04:43:53;;;;;;;2.80;2.30;;;;;;;9.13;100.00;93064.56;2102013;27;20028;-85
2021/08/28 04:44:54;;;;;;;4.28;2.58;;;;;;;9.14;100.00;93066.09;2101538;28;20060;-86
2021/08/28 04:45:55;;;;;;;3.80;2.78;;;;;;;9.13;100.00;93072.56;2102165;28;20017;-87
2021/08/28 04:46:56;;;;;;;4.55;2.60;;;;;;;9.19;100.00;93071.69;2100430;28;20512;-85
2021/08/28 04:47:57;;;;;;;5.40;3.15;;;;;;;9.19;100.00;93068.28;2101466;28;20062;-87
2021/08/28 04:48:58;;;;;;;4.20;2.80;;;;;;;9.16;100.00;93075.16;2109797;28;20435;-89
2021/08/28 04:49:59;;;;;;;3.63;2.67;;;;;;;9.16;100.00;93074.41;2100971;28;20624;-88
2021/08/28 04:51:00;;;;;;;3.60;2.70;;;;;;;9.13;100.00;93080.56;2105430;28;20051;-86
2021/08/28 04:52:01;;;;;;;4.15;2.67;;;;;;;9.19;100.00;93081.63;2105276;28;20028;-87
2021/08/28 04:53:02;;;;;;;4.05;2.97;;;;;;;9.23;100.00;93080.38;2088948;28;20044;-87
2021/08/28 04:54:03;;;;;;;2.78;2.58;;;;;;;9.33;100.00;93081.34;2105646;28;20026;-88
2021/08/28 04:55:04;;;;;;;3.70;2.90;;;;;;;9.39;100.00;93086.97;2101342;28;20028;-86